Payson, Illinois
Current Conditions -  °F | °C
As of 7:54 PM on Friday 24 Oct 2014 (Local Time) from KUIN Reporting Station
Clear Clear  
Wind Chill: 64°   Ceiling: Unl
Heat Index: 64°   Visibility: 10mi
Dew Point: 56°   Wind: 10mph
Humidity: 75%   Direction: 200°SSW
Pressure: 29.94"   Gusts: NA
Location:  39.82°N, 91.24°W
Report Text: KUIN 250054Z AUTO 20009KT 10SM CLR 18/13 A2994 RMK AO2 SLP137 T01780133
Loading
Personal Weather Stations






























Interactive Weather Map
Tropical Storm Tracking
New forecast layout! Learn more

10-Day Weather Forecast

Advertisements
Track Severe Weather on mobile